Partridge, Kentucky
Current Conditions -  °F | °C
As of 3:35 AM on Friday 28 Nov 2014 (Local Time) from KLNP Reporting Station
Light Snow Light Snow  
Wind Chill: 18°   Ceiling: 2500
Heat Index: 27°   Visibility: 7mi
Dew Point: 19°   Wind: 8mph
Humidity: 74%   Direction: 290°WNW
Pressure: 30.28"   Gusts: NA
Location:  37.01°N, 82.9°W
Report Text: KLNP 280835Z AUTO 29007KT 7SM -SN SCT015 SCT020 OVC025 M03/M07 A3028 RMK AO2
Loading
Personal Weather Stations






























Interactive Weather Map New forecast layout! Learn more

10-Day Weather Forecast

Advertisements
Track Severe Weather on mobile